createdAt,value
2022-09-29T00:04:34.776Z,8.3
2022-09-29T00:19:03.829Z,8.2
2022-09-29T00:33:34.803Z,8.1
2022-09-29T00:48:19.510Z,8.1
2022-09-29T01:02:48.852Z,8.2
2022-09-29T01:17:21.038Z,7.5
2022-09-29T01:31:53.177Z,7.2
2022-09-29T01:46:26.574Z,7
2022-09-29T02:00:53.105Z,6.8
2022-09-29T02:15:24.985Z,7.3
2022-09-29T02:29:54.877Z,7.1
2022-09-29T02:44:24.588Z,7
2022-09-29T02:58:55.972Z,6.8
2022-09-29T03:13:24.719Z,6.9
2022-09-29T03:27:55.070Z,6.8
2022-09-29T03:42:25.929Z,6.4
2022-09-29T03:56:57.381Z,6.5
2022-09-29T04:11:27.702Z,6.3
2022-09-29T04:25:58.559Z,6.3
2022-09-29T04:40:30.556Z,6.1
2022-09-29T04:55:01.050Z,6.3
2022-09-29T05:09:33.450Z,5.8
2022-09-29T05:24:04.145Z,5.8
2022-09-29T05:38:32.203Z,5.7
2022-09-29T05:53:03.104Z,5.9
2022-09-29T06:07:35.298Z,5.7
2022-09-29T06:22:05.310Z,5.7
2022-09-29T06:36:37.106Z,5.9
2022-09-29T06:51:10.325Z,6.3
2022-09-29T07:05:41.902Z,6.3
2022-09-29T07:20:32.756Z,6.3
2022-09-29T07:35:04.749Z,6.6
2022-09-29T07:49:37.487Z,7.1
2022-09-29T08:04:11.048Z,7.5
2022-09-29T08:18:45.713Z,9.3
2022-09-29T08:33:32.011Z,14.9
2022-09-29T08:48:14.368Z,13.8
2022-09-29T09:02:40.843Z,13.9
2022-09-29T09:17:13.768Z,14.5
2022-09-29T09:31:39.745Z,14.6
2022-09-29T09:46:08.689Z,14.5
2022-09-29T10:00:39.349Z,14.4
2022-09-29T10:15:12.016Z,14.9
2022-09-29T10:29:41.649Z,14.2
2022-09-29T10:44:13.016Z,14.3
2022-09-29T10:58:58.759Z,14.4
2022-09-29T11:13:28.238Z,14.7
2022-09-29T11:27:59.092Z,14.2
2022-09-29T11:42:29.194Z,14
2022-09-29T11:57:03.582Z,14.5
2022-09-29T12:12:05.076Z,13.8
2022-09-29T12:26:35.007Z,13.9
2022-09-29T12:41:05.259Z,14
2022-09-29T12:55:37.679Z,13.9
2022-09-29T13:10:09.166Z,14.1
2022-09-29T13:24:43.762Z,14.3
2022-09-29T13:39:16.280Z,14.6
2022-09-29T13:53:48.361Z,15
2022-09-29T14:08:20.907Z,15.3
2022-09-29T14:22:51.739Z,15.1
2022-09-29T14:37:27.615Z,15.1
2022-09-29T14:52:02.125Z,15.4
2022-09-29T15:06:35.828Z,15.2
2022-09-29T15:21:02.509Z,15.2
2022-09-29T15:35:39.089Z,15
2022-09-29T15:50:12.799Z,14.5
2022-09-29T16:04:38.601Z,14.3
2022-09-29T16:19:15.138Z,13.6
2022-09-29T16:33:47.562Z,13.5
2022-09-29T16:48:15.017Z,13.4
2022-09-29T17:02:44.178Z,13.1
2022-09-29T17:17:12.470Z,12.4
2022-09-29T17:31:40.767Z,11.8
2022-09-29T17:46:11.432Z,11.9
2022-09-29T18:00:40.932Z,11.3
2022-09-29T18:15:11.267Z,10.9
2022-09-29T18:29:40.731Z,10.6
2022-09-29T18:44:11.660Z,10.6
2022-09-29T18:58:42.315Z,10.5
2022-09-29T19:13:13.493Z,10.3
2022-09-29T19:27:44.207Z,10
2022-09-29T19:42:14.691Z,9.9
2022-09-29T19:56:45.002Z,9.6
2022-09-29T20:11:16.437Z,9.9
2022-09-29T20:25:48.056Z,10
2022-09-29T20:40:18.796Z,9.4
2022-09-29T20:54:50.609Z,9.9
2022-09-29T21:09:22.330Z,10.1
2022-09-29T21:23:53.400Z,10
2022-09-29T21:38:24.688Z,9.9
2022-09-29T21:52:56.146Z,9.9
2022-09-29T22:07:26.622Z,9.3
2022-09-29T22:21:56.784Z,9.5
2022-09-29T22:36:28.975Z,9.7
2022-09-29T22:51:00.350Z,9.6
2022-09-29T23:05:30.617Z,9
2022-09-29T23:20:02.154Z,8.8
2022-09-29T23:34:32.771Z,8.6
2022-09-29T23:49:03.805Z,8.3
